sensor_id;sensor_type;location;lat;lon;timestamp;P1;durP1;ratioP1;P2;durP2;ratioP2
11121;SDS011;5615;49.304;10.576;2022-11-13T00:01:45;163.97;;;49.10;;
11121;SDS011;5615;49.304;10.576;2022-11-13T00:04:13;282.77;;;56.83;;
11121;SDS011;5615;49.304;10.576;2022-11-13T00:06:40;321.23;;;58.90;;
11121;SDS011;5615;49.304;10.576;2022-11-13T00:09:07;90.07;;;46.23;;
11121;SDS011;5615;49.304;10.576;2022-11-13T00:11:36;139.37;;;47.47;;
11121;SDS011;5615;49.304;10.576;2022-11-13T00:14:03;244.37;;;55.50;;
11121;SDS011;5615;49.304;10.576;2022-11-13T00:16:30;194.27;;;51.30;;
11121;SDS011;5615;49.304;10.576;2022-11-13T00:18:57;419.77;;;65.17;;
11121;SDS011;5615;49.304;10.576;2022-11-13T00:21:25;53.73;;;37.57;;
11121;SDS011;5615;49.304;10.576;2022-11-13T00:23:52;187.17;;;48.47;;
11121;SDS011;5615;49.304;10.576;2022-11-13T00:26:20;136.43;;;44.33;;
11121;SDS011;5615;49.304;10.576;2022-11-13T00:28:50;103.23;;;45.73;;
11121;SDS011;5615;49.304;10.576;2022-11-13T00:31:18;160.27;;;48.33;;
11121;SDS011;5615;49.304;10.576;2022-11-13T00:33:45;172.67;;;49.17;;
11121;SDS011;5615;49.304;10.576;2022-11-13T00:36:13;100.40;;;44.53;;
11121;SDS011;5615;49.304;10.576;2022-11-13T00:38:42;119.17;;;45.80;;
11121;SDS011;5615;49.304;10.576;2022-11-13T00:41:09;108.83;;;43.83;;
11121;SDS011;5615;49.304;10.576;2022-11-13T00:43:36;106.07;;;44.80;;
11121;SDS011;5615;49.304;10.576;2022-11-13T00:46:03;79.73;;;42.17;;
11121;SDS011;5615;49.304;10.576;2022-11-13T00:48:30;65.37;;;39.43;;
11121;SDS011;5615;49.304;10.576;2022-11-13T00:50:56;81.50;;;41.60;;
11121;SDS011;5615;49.304;10.576;2022-11-13T00:53:23;125.90;;;43.63;;
11121;SDS011;5615;49.304;10.576;2022-11-13T00:55:51;120.13;;;44.17;;
11121;SDS011;5615;49.304;10.576;2022-11-13T00:58:18;128.57;;;44.97;;
11121;SDS011;5615;49.304;10.576;2022-11-13T01:00:45;134.70;;;48.23;;
11121;SDS011;5615;49.304;10.576;2022-11-13T01:03:13;96.67;;;40.63;;
11121;SDS011;5615;49.304;10.576;2022-11-13T01:05:41;97.97;;;42.70;;
11121;SDS011;5615;49.304;10.576;2022-11-13T01:08:09;202.23;;;47.60;;
11121;SDS011;5615;49.304;10.576;2022-11-13T01:10:37;98.60;;;41.20;;
11121;SDS011;5615;49.304;10.576;2022-11-13T01:13:07;184.40;;;47.07;;
11121;SDS011;5615;49.304;10.576;2022-11-13T01:15:33;178.13;;;45.30;;
11121;SDS011;5615;49.304;10.576;2022-11-13T01:18:03;99.80;;;42.87;;
11121;SDS011;5615;49.304;10.576;2022-11-13T01:20:29;212.33;;;43.70;;
11121;SDS011;5615;49.304;10.576;2022-11-13T01:22:57;129.57;;;42.13;;
11121;SDS011;5615;49.304;10.576;2022-11-13T01:25:24;108.47;;;45.10;;
11121;SDS011;5615;49.304;10.576;2022-11-13T01:27:50;159.17;;;42.30;;
11121;SDS011;5615;49.304;10.576;2022-11-13T01:30:18;158.93;;;45.20;;
11121;SDS011;5615;49.304;10.576;2022-11-13T01:32:45;214.47;;;46.13;;
11121;SDS011;5615;49.304;10.576;2022-11-13T01:35:12;204.27;;;43.97;;
11121;SDS011;5615;49.304;10.576;2022-11-13T01:37:38;183.70;;;45.40;;
11121;SDS011;5615;49.304;10.576;2022-11-13T01:40:05;131.00;;;42.67;;
11121;SDS011;5615;49.304;10.576;2022-11-13T01:42:33;146.07;;;43.50;;
11121;SDS011;5615;49.304;10.576;2022-11-13T01:45:00;63.33;;;36.33;;
11121;SDS011;5615;49.304;10.576;2022-11-13T01:47:28;79.27;;;39.07;;
11121;SDS011;5615;49.304;10.576;2022-11-13T01:49:56;82.73;;;39.40;;
11121;SDS011;5615;49.304;10.576;2022-11-13T01:52:26;62.47;;;38.73;;
11121;SDS011;5615;49.304;10.576;2022-11-13T01:54:56;62.63;;;37.30;;
11121;SDS011;5615;49.304;10.576;2022-11-13T01:57:26;54.87;;;36.83;;
11121;SDS011;5615;49.304;10.576;2022-11-13T01:59:54;55.10;;;34.83;;
11121;SDS011;5615;49.304;10.576;2022-11-13T02:02:23;65.97;;;35.93;;
11121;SDS011;5615;49.304;10.576;2022-11-13T02:04:51;52.57;;;34.27;;
11121;SDS011;5615;49.304;10.576;2022-11-13T02:07:19;81.00;;;36.47;;
11121;SDS011;5615;49.304;10.576;2022-11-13T02:09:47;60.00;;;34.37;;
11121;SDS011;5615;49.304;10.576;2022-11-13T02:12:18;56.70;;;34.43;;
11121;SDS011;5615;49.304;10.576;2022-11-13T02:14:51;43.07;;;29.67;;
11121;SDS011;5615;49.304;10.576;2022-11-13T02:17:20;42.00;;;29.50;;
11121;SDS011;5615;49.304;10.576;2022-11-13T02:19:53;42.33;;;30.73;;
11121;SDS011;5615;49.304;10.576;2022-11-13T02:22:24;45.53;;;30.63;;
11121;SDS011;5615;49.304;10.576;2022-11-13T02:24:58;39.60;;;28.43;;
11121;SDS011;5615;49.304;10.576;2022-11-13T02:27:31;40.57;;;28.73;;
11121;SDS011;5615;49.304;10.576;2022-11-13T02:30:09;40.80;;;28.03;;
11121;SDS011;5615;49.304;10.576;2022-11-13T02:32:40;40.13;;;27.97;;
11121;SDS011;5615;49.304;10.576;2022-11-13T02:35:08;35.60;;;26.37;;
11121;SDS011;5615;49.304;10.576;2022-11-13T02:37:34;34.40;;;24.87;;
11121;SDS011;5615;49.304;10.576;2022-11-13T02:40:03;41.60;;;29.50;;
11121;SDS011;5615;49.304;10.576;2022-11-13T02:42:30;41.37;;;28.97;;
11121;SDS011;5615;49.304;10.576;2022-11-13T02:44:57;45.27;;;28.57;;
11121;SDS011;5615;49.304;10.576;2022-11-13T02:47:24;40.50;;;28.33;;
11121;SDS011;5615;49.304;10.576;2022-11-13T02:49:50;41.47;;;27.23;;
11121;SDS011;5615;49.304;10.576;2022-11-13T02:52:17;36.90;;;27.23;;
11121;SDS011;5615;49.304;10.576;2022-11-13T02:54:44;40.30;;;28.67;;
11121;SDS011;5615;49.304;10.576;2022-11-13T02:57:12;41.07;;;26.83;;
11121;SDS011;5615;49.304;10.576;2022-11-13T02:59:38;45.30;;;29.00;;
11121;SDS011;5615;49.304;10.576;2022-11-13T03:02:06;36.33;;;26.00;;
11121;SDS011;5615;49.304;10.576;2022-11-13T03:04:32;40.90;;;26.57;;
11121;SDS011;5615;49.304;10.576;2022-11-13T03:06:59;43.83;;;29.47;;
11121;SDS011;5615;49.304;10.576;2022-11-13T03:09:26;46.37;;;29.73;;
11121;SDS011;5615;49.304;10.576;2022-11-13T03:11:52;38.80;;;28.33;;
11121;SDS011;5615;49.304;10.576;2022-11-13T03:14:20;44.83;;;30.37;;
11121;SDS011;5615;49.304;10.576;2022-11-13T03:16:47;37.73;;;26.87;;
11121;SDS011;5615;49.304;10.576;2022-11-13T03:19:14;36.43;;;26.93;;
11121;SDS011;5615;49.304;10.576;2022-11-13T03:21:40;37.00;;;26.93;;
11121;SDS011;5615;49.304;10.576;2022-11-13T03:24:07;35.63;;;26.80;;
11121;SDS011;5615;49.304;10.576;2022-11-13T03:26:34;32.43;;;24.17;;
11121;SDS011;5615;49.304;10.576;2022-11-13T03:29:00;32.63;;;24.07;;
11121;SDS011;5615;49.304;10.576;2022-11-13T03:31:28;31.60;;;25.10;;
11121;SDS011;5615;49.304;10.576;2022-11-13T03:33:55;32.73;;;24.07;;
11121;SDS011;5615;49.304;10.576;2022-11-13T03:36:22;32.80;;;23.97;;
11121;SDS011;5615;49.304;10.576;2022-11-13T03:38:48;29.00;;;23.07;;
11121;SDS011;5615;49.304;10.576;2022-11-13T03:41:15;29.37;;;22.77;;
11121;SDS011;5615;49.304;10.576;2022-11-13T03:43:42;31.30;;;23.80;;
11121;SDS011;5615;49.304;10.576;2022-11-13T03:46:08;29.60;;;22.37;;
11121;SDS011;5615;49.304;10.576;2022-11-13T03:48:36;26.70;;;21.37;;
11121;SDS011;5615;49.304;10.576;2022-11-13T03:51:03;28.80;;;23.00;;
11121;SDS011;5615;49.304;10.576;2022-11-13T03:53:30;30.33;;;22.30;;
11121;SDS011;5615;49.304;10.576;2022-11-13T03:55:57;28.70;;;22.40;;
11121;SDS011;5615;49.304;10.576;2022-11-13T03:58:24;29.27;;;22.80;;
11121;SDS011;5615;49.304;10.576;2022-11-13T04:00:52;29.47;;;22.40;;
11121;SDS011;5615;49.304;10.576;2022-11-13T04:03:19;28.07;;;21.70;;
11121;SDS011;5615;49.304;10.576;2022-11-13T04:05:48;27.67;;;21.30;;
11121;SDS011;5615;49.304;10.576;2022-11-13T04:08:15;26.97;;;20.60;;
11121;SDS011;5615;49.304;10.576;2022-11-13T04:10:43;26.60;;;20.70;;
11121;SDS011;5615;49.304;10.576;2022-11-13T04:13:10;28.23;;;22.00;;
11121;SDS011;5615;49.304;10.576;2022-11-13T04:15:37;26.30;;;20.60;;
11121;SDS011;5615;49.304;10.576;2022-11-13T04:18:04;26.73;;;21.00;;
11121;SDS011;5615;49.304;10.576;2022-11-13T04:20:30;29.43;;;21.07;;
11121;SDS011;5615;49.304;10.576;2022-11-13T04:22:58;27.97;;;20.53;;
11121;SDS011;5615;49.304;10.576;2022-11-13T04:25:25;24.07;;;18.70;;
11121;SDS011;5615;49.304;10.576;2022-11-13T04:27:52;24.77;;;19.43;;
11121;SDS011;5615;49.304;10.576;2022-11-13T04:30:19;28.20;;;20.07;;
11121;SDS011;5615;49.304;10.576;2022-11-13T04:32:45;27.00;;;20.03;;
11121;SDS011;5615;49.304;10.576;2022-11-13T04:35:12;25.70;;;19.50;;
11121;SDS011;5615;49.304;10.576;2022-11-13T04:37:39;24.87;;;19.50;;
11121;SDS011;5615;49.304;10.576;2022-11-13T04:40:08;24.67;;;20.20;;
11121;SDS011;5615;49.304;10.576;2022-11-13T04:42:35;25.97;;;20.73;;
11121;SDS011;5615;49.304;10.576;2022-11-13T04:45:13;26.47;;;19.37;;
11121;SDS011;5615;49.304;10.576;2022-11-13T04:47:40;28.17;;;21.33;;
11121;SDS011;5615;49.304;10.576;2022-11-13T04:50:07;29.80;;;21.33;;
11121;SDS011;5615;49.304;10.576;2022-11-13T04:52:34;27.43;;;20.83;;
11121;SDS011;5615;49.304;10.576;2022-11-13T04:55:01;29.47;;;21.27;;
11121;SDS011;5615;49.304;10.576;2022-11-13T04:57:29;27.77;;;21.70;;
11121;SDS011;5615;49.304;10.576;2022-11-13T04:59:56;29.80;;;22.30;;
11121;SDS011;5615;49.304;10.576;2022-11-13T05:02:23;28.77;;;21.93;;
11121;SDS011;5615;49.304;10.576;2022-11-13T05:04:49;29.30;;;22.03;;
11121;SDS011;5615;49.304;10.576;2022-11-13T05:07:16;30.33;;;22.73;;
11121;SDS011;5615;49.304;10.576;2022-11-13T05:09:43;28.33;;;21.43;;
11121;SDS011;5615;49.304;10.576;2022-11-13T05:12:10;29.53;;;21.60;;
11121;SDS011;5615;49.304;10.576;2022-11-13T05:14:39;28.30;;;21.53;;
11121;SDS011;5615;49.304;10.576;2022-11-13T05:17:07;27.03;;;21.53;;
11121;SDS011;5615;49.304;10.576;2022-11-13T05:19:35;25.93;;;20.70;;
11121;SDS011;5615;49.304;10.576;2022-11-13T05:22:02;28.67;;;21.37;;
11121;SDS011;5615;49.304;10.576;2022-11-13T05:24:29;27.17;;;20.80;;
11121;SDS011;5615;49.304;10.576;2022-11-13T05:26:57;27.67;;;21.73;;
11121;SDS011;5615;49.304;10.576;2022-11-13T05:29:23;30.97;;;22.20;;
11121;SDS011;5615;49.304;10.576;2022-11-13T05:31:51;29.10;;;21.97;;
11121;SDS011;5615;49.304;10.576;2022-11-13T05:34:18;28.97;;;22.17;;
11121;SDS011;5615;49.304;10.576;2022-11-13T05:36:45;29.20;;;22.47;;
11121;SDS011;5615;49.304;10.576;2022-11-13T05:39:11;27.90;;;22.77;;
11121;SDS011;5615;49.304;10.576;2022-11-13T05:41:38;27.60;;;21.97;;
11121;SDS011;5615;49.304;10.576;2022-11-13T05:44:05;27.77;;;21.57;;
11121;SDS011;5615;49.304;10.576;2022-11-13T05:46:32;27.93;;;21.53;;
11121;SDS011;5615;49.304;10.576;2022-11-13T05:49:00;29.93;;;22.27;;
11121;SDS011;5615;49.304;10.576;2022-11-13T05:51:28;27.97;;;22.00;;
11121;SDS011;5615;49.304;10.576;2022-11-13T05:53:55;27.17;;;20.87;;
11121;SDS011;5615;49.304;10.576;2022-11-13T05:56:24;27.43;;;21.67;;
11121;SDS011;5615;49.304;10.576;2022-11-13T05:58:52;28.10;;;22.00;;
11121;SDS011;5615;49.304;10.576;2022-11-13T06:01:20;29.17;;;21.40;;
11121;SDS011;5615;49.304;10.576;2022-11-13T06:03:47;30.53;;;22.43;;
11121;SDS011;5615;49.304;10.576;2022-11-13T06:06:17;27.57;;;20.83;;
11121;SDS011;5615;49.304;10.576;2022-11-13T06:08:45;28.67;;;21.20;;
11121;SDS011;5615;49.304;10.576;2022-11-13T06:11:13;25.70;;;21.63;;
11121;SDS011;5615;49.304;10.576;2022-11-13T06:13:41;27.53;;;21.60;;
11121;SDS011;5615;49.304;10.576;2022-11-13T06:16:09;26.93;;;22.13;;
11121;SDS011;5615;49.304;10.576;2022-11-13T06:18:37;26.53;;;21.60;;
11121;SDS011;5615;49.304;10.576;2022-11-13T06:21:06;28.17;;;21.90;;
11121;SDS011;5615;49.304;10.576;2022-11-13T06:23:36;27.50;;;20.63;;
11121;SDS011;5615;49.304;10.576;2022-11-13T06:26:04;27.97;;;21.80;;
11121;SDS011;5615;49.304;10.576;2022-11-13T06:28:32;26.40;;;20.87;;
11121;SDS011;5615;49.304;10.576;2022-11-13T06:31:02;26.20;;;20.67;;
11121;SDS011;5615;49.304;10.576;2022-11-13T06:33:30;27.77;;;21.97;;
11121;SDS011;5615;49.304;10.576;2022-11-13T06:35:57;27.07;;;20.60;;
11121;SDS011;5615;49.304;10.576;2022-11-13T06:38:25;27.23;;;21.07;;
11121;SDS011;5615;49.304;10.576;2022-11-13T06:40:56;25.50;;;19.90;;
11121;SDS011;5615;49.304;10.576;2022-11-13T06:43:23;24.20;;;19.63;;
11121;SDS011;5615;49.304;10.576;2022-11-13T06:45:50;26.90;;;21.13;;
11121;SDS011;5615;49.304;10.576;2022-11-13T06:48:16;28.30;;;20.80;;
11121;SDS011;5615;49.304;10.576;2022-11-13T06:50:43;27.37;;;21.37;;
11121;SDS011;5615;49.304;10.576;2022-11-13T06:53:10;26.63;;;20.93;;
11121;SDS011;5615;49.304;10.576;2022-11-13T06:55:40;25.53;;;21.07;;
11121;SDS011;5615;49.304;10.576;2022-11-13T06:58:09;31.93;;;24.00;;
11121;SDS011;5615;49.304;10.576;2022-11-13T07:00:36;37.60;;;29.80;;
11121;SDS011;5615;49.304;10.576;2022-11-13T07:03:03;48.13;;;35.07;;
11121;SDS011;5615;49.304;10.576;2022-11-13T07:05:29;36.50;;;30.37;;
11121;SDS011;5615;49.304;10.576;2022-11-13T07:07:56;32.80;;;26.63;;
11121;SDS011;5615;49.304;10.576;2022-11-13T07:10:23;36.27;;;27.47;;
11121;SDS011;5615;49.304;10.576;2022-11-13T07:12:49;37.77;;;25.73;;
11121;SDS011;5615;49.304;10.576;2022-11-13T07:15:17;31.53;;;25.40;;
11121;SDS011;5615;49.304;10.576;2022-11-13T07:17:44;33.87;;;27.30;;
11121;SDS011;5615;49.304;10.576;2022-11-13T07:20:10;32.07;;;25.57;;
11121;SDS011;5615;49.304;10.576;2022-11-13T07:22:37;37.63;;;30.30;;
11121;SDS011;5615;49.304;10.576;2022-11-13T07:25:04;34.70;;;27.47;;
11121;SDS011;5615;49.304;10.576;2022-11-13T07:27:31;37.93;;;27.43;;
11121;SDS011;5615;49.304;10.576;2022-11-13T07:29:58;33.43;;;26.20;;
11121;SDS011;5615;49.304;10.576;2022-11-13T07:32:26;32.27;;;24.87;;
11121;SDS011;5615;49.304;10.576;2022-11-13T07:34:53;34.07;;;25.93;;
11121;SDS011;5615;49.304;10.576;2022-11-13T07:37:19;36.67;;;26.53;;
11121;SDS011;5615;49.304;10.576;2022-11-13T07:39:46;32.60;;;25.40;;
11121;SDS011;5615;49.304;10.576;2022-11-13T07:42:12;31.97;;;25.60;;
11121;SDS011;5615;49.304;10.576;2022-11-13T07:44:39;37.83;;;26.70;;
11121;SDS011;5615;49.304;10.576;2022-11-13T07:47:06;33.10;;;26.53;;
11121;SDS011;5615;49.304;10.576;2022-11-13T07:49:34;38.43;;;27.13;;
11121;SDS011;5615;49.304;10.576;2022-11-13T07:52:00;34.17;;;26.30;;
11121;SDS011;5615;49.304;10.576;2022-11-13T07:54:27;34.90;;;26.63;;
11121;SDS011;5615;49.304;10.576;2022-11-13T07:56:54;36.63;;;28.60;;
11121;SDS011;5615;49.304;10.576;2022-11-13T07:59:20;36.97;;;27.73;;
11121;SDS011;5615;49.304;10.576;2022-11-13T08:01:47;36.97;;;29.90;;
11121;SDS011;5615;49.304;10.576;2022-11-13T08:04:14;37.90;;;29.60;;
11121;SDS011;5615;49.304;10.576;2022-11-13T08:06:42;38.33;;;28.67;;
11121;SDS011;5615;49.304;10.576;2022-11-13T08:09:08;39.03;;;29.00;;
11121;SDS011;5615;49.304;10.576;2022-11-13T08:11:35;40.60;;;30.67;;
11121;SDS011;5615;49.304;10.576;2022-11-13T08:14:02;41.27;;;29.40;;
11121;SDS011;5615;49.304;10.576;2022-11-13T08:16:28;41.03;;;30.13;;
11121;SDS011;5615;49.304;10.576;2022-11-13T08:18:55;33.17;;;27.70;;
11121;SDS011;5615;49.304;10.576;2022-11-13T08:21:22;38.53;;;28.90;;
11121;SDS011;5615;49.304;10.576;2022-11-13T08:23:50;34.27;;;26.53;;
11121;SDS011;5615;49.304;10.576;2022-11-13T08:26:17;33.33;;;24.03;;
11121;SDS011;5615;49.304;10.576;2022-11-13T08:28:44;36.77;;;27.77;;
11121;SDS011;5615;49.304;10.576;2022-11-13T08:31:12;34.63;;;29.53;;
11121;SDS011;5615;49.304;10.576;2022-11-13T08:33:40;39.83;;;30.33;;
11121;SDS011;5615;49.304;10.576;2022-11-13T08:36:08;36.73;;;28.37;;
11121;SDS011;5615;49.304;10.576;2022-11-13T08:38:35;35.33;;;28.37;;
11121;SDS011;5615;49.304;10.576;2022-11-13T08:41:04;33.47;;;29.47;;
11121;SDS011;5615;49.304;10.576;2022-11-13T08:43:31;33.13;;;27.80;;
11121;SDS011;5615;49.304;10.576;2022-11-13T08:45:58;32.17;;;27.87;;
11121;SDS011;5615;49.304;10.576;2022-11-13T08:48:25;31.13;;;26.03;;
11121;SDS011;5615;49.304;10.576;2022-11-13T08:50:52;28.37;;;23.90;;
11121;SDS011;5615;49.304;10.576;2022-11-13T08:53:19;24.60;;;21.60;;
11121;SDS011;5615;49.304;10.576;2022-11-13T08:55:47;21.93;;;19.10;;
11121;SDS011;5615;49.304;10.576;2022-11-13T08:58:15;21.33;;;16.60;;
11121;SDS011;5615;49.304;10.576;2022-11-13T09:00:42;17.73;;;15.50;;
11121;SDS011;5615;49.304;10.576;2022-11-13T09:03:10;16.53;;;13.53;;
11121;SDS011;5615;49.304;10.576;2022-11-13T09:05:37;14.07;;;12.00;;
11121;SDS011;5615;49.304;10.576;2022-11-13T09:08:04;14.20;;;11.23;;
11121;SDS011;5615;49.304;10.576;2022-11-13T09:10:31;13.53;;;11.87;;
11121;SDS011;5615;49.304;10.576;2022-11-13T09:12:58;14.27;;;10.87;;
11121;SDS011;5615;49.304;10.576;2022-11-13T09:15:27;13.53;;;10.60;;
11121;SDS011;5615;49.304;10.576;2022-11-13T09:17:57;12.47;;;10.20;;
11121;SDS011;5615;49.304;10.576;2022-11-13T09:20:24;12.50;;;10.43;;
11121;SDS011;5615;49.304;10.576;2022-11-13T09:22:55;15.10;;;12.52;;
11121;SDS011;5615;49.304;10.576;2022-11-13T09:25:22;11.38;;;10.23;;
11121;SDS011;5615;49.304;10.576;2022-11-13T09:27:52;10.13;;;9.10;;
11121;SDS011;5615;49.304;10.576;2022-11-13T09:30:20;25.90;;;23.52;;
11121;SDS011;5615;49.304;10.576;2022-11-13T09:32:51;15.52;;;14.02;;
11121;SDS011;5615;49.304;10.576;2022-11-13T09:35:18;10.18;;;8.18;;
11121;SDS011;5615;49.304;10.576;2022-11-13T09:37:57;8.68;;;7.88;;
11121;SDS011;5615;49.304;10.576;2022-11-13T09:40:26;8.88;;;6.85;;
11121;SDS011;5615;49.304;10.576;2022-11-13T09:42:56;6.50;;;6.00;;
11121;SDS011;5615;49.304;10.576;2022-11-13T09:45:23;6.85;;;6.15;;
11121;SDS011;5615;49.304;10.576;2022-11-13T09:47:51;7.63;;;6.88;;
11121;SDS011;5615;49.304;10.576;2022-11-13T09:50:21;6.60;;;6.00;;
11121;SDS011;5615;49.304;10.576;2022-11-13T09:52:49;6.88;;;6.25;;
11121;SDS011;5615;49.304;10.576;2022-11-13T09:55:18;7.47;;;6.80;;
11121;SDS011;5615;49.304;10.576;2022-11-13T09:57:51;7.13;;;6.40;;
11121;SDS011;5615;49.304;10.576;2022-11-13T10:00:26;8.05;;;6.68;;
11121;SDS011;5615;49.304;10.576;2022-11-13T10:03:12;7.93;;;7.22;;
11121;SDS011;5615;49.304;10.576;2022-11-13T10:05:51;7.43;;;6.72;;
11121;SDS011;5615;49.304;10.576;2022-11-13T10:08:25;7.90;;;7.20;;
11121;SDS011;5615;49.304;10.576;2022-11-13T10:10:56;7.45;;;6.75;;
11121;SDS011;5615;49.304;10.576;2022-11-13T10:13:31;8.10;;;7.35;;
11121;SDS011;5615;49.304;10.576;2022-11-13T10:16:03;7.47;;;6.88;;
11121;SDS011;5615;49.304;10.576;2022-11-13T10:18:41;7.60;;;7.00;;
11121;SDS011;5615;49.304;10.576;2022-11-13T10:21:12;7.28;;;6.60;;
11121;SDS011;5615;49.304;10.576;2022-11-13T10:23:46;7.43;;;6.72;;
11121;SDS011;5615;49.304;10.576;2022-11-13T10:26:18;7.30;;;6.60;;
11121;SDS011;5615;49.304;10.576;2022-11-13T10:28:48;7.38;;;6.78;;
11121;SDS011;5615;49.304;10.576;2022-11-13T10:31:23;7.40;;;6.80;;
11121;SDS011;5615;49.304;10.576;2022-11-13T10:33:51;7.88;;;7.18;;
11121;SDS011;5615;49.304;10.576;2022-11-13T10:36:22;7.82;;;7.03;;
11121;SDS011;5615;49.304;10.576;2022-11-13T10:38:57;8.20;;;7.50;;
11121;SDS011;5615;49.304;10.576;2022-11-13T10:41:28;8.00;;;7.28;;
11121;SDS011;5615;49.304;10.576;2022-11-13T10:44:04;7.90;;;7.10;;
11121;SDS011;5615;49.304;10.576;2022-11-13T10:46:33;7.53;;;6.85;;
11121;SDS011;5615;49.304;10.576;2022-11-13T10:49:10;7.60;;;6.80;;
11121;SDS011;5615;49.304;10.576;2022-11-13T10:51:38;7.40;;;6.78;;
11121;SDS011;5615;49.304;10.576;2022-11-13T10:54:15;7.28;;;6.68;;
11121;SDS011;5615;49.304;10.576;2022-11-13T10:56:54;7.90;;;7.20;;
11121;SDS011;5615;49.304;10.576;2022-11-13T10:59:22;7.13;;;6.50;;
11121;SDS011;5615;49.304;10.576;2022-11-13T11:01:49;6.53;;;5.95;;
11121;SDS011;5615;49.304;10.576;2022-11-13T11:04:20;6.85;;;6.22;;
11121;SDS011;5615;49.304;10.576;2022-11-13T11:06:51;6.47;;;5.70;;
11121;SDS011;5615;49.304;10.576;2022-11-13T11:09:20;6.20;;;5.60;;
11121;SDS011;5615;49.304;10.576;2022-11-13T11:12:00;7.00;;;5.60;;
11121;SDS011;5615;49.304;10.576;2022-11-13T11:15:00;11.73;;;9.27;;
11121;SDS011;5615;49.304;10.576;2022-11-13T11:17:33;8.63;;;7.65;;
11121;SDS011;5615;49.304;10.576;2022-11-13T11:20:05;15.73;;;11.77;;
11121;SDS011;5615;49.304;10.576;2022-11-13T11:22:41;18.30;;;16.42;;
11121;SDS011;5615;49.304;10.576;2022-11-13T11:25:11;7.22;;;6.53;;
11121;SDS011;5615;49.304;10.576;2022-11-13T11:27:43;6.80;;;5.97;;
11121;SDS011;5615;49.304;10.576;2022-11-13T11:30:16;6.40;;;5.80;;
11121;SDS011;5615;49.304;10.576;2022-11-13T11:32:46;6.43;;;5.82;;
11121;SDS011;5615;49.304;10.576;2022-11-13T11:35:22;6.50;;;5.93;;
11121;SDS011;5615;49.304;10.576;2022-11-13T11:37:54;5.47;;;5.07;;
11121;SDS011;5615;49.304;10.576;2022-11-13T11:40:25;6.30;;;5.80;;
11121;SDS011;5615;49.304;10.576;2022-11-13T11:42:58;6.38;;;5.80;;
11121;SDS011;5615;49.304;10.576;2022-11-13T11:45:29;6.15;;;5.60;;
11121;SDS011;5615;49.304;10.576;2022-11-13T11:48:00;6.53;;;5.95;;
11121;SDS011;5615;49.304;10.576;2022-11-13T11:50:34;6.30;;;5.70;;
11121;SDS011;5615;49.304;10.576;2022-11-13T11:53:06;6.10;;;5.60;;
11121;SDS011;5615;49.304;10.576;2022-11-13T11:55:43;5.95;;;5.35;;
11121;SDS011;5615;49.304;10.576;2022-11-13T11:58:37;7.13;;;5.40;;
11121;SDS011;5615;49.304;10.576;2022-11-13T12:01:22;5.97;;;5.57;;
11121;SDS011;5615;49.304;10.576;2022-11-13T12:04:02;6.10;;;5.60;;
11121;SDS011;5615;49.304;10.576;2022-11-13T12:06:44;6.30;;;5.80;;
11121;SDS011;5615;49.304;10.576;2022-11-13T12:09:22;6.20;;;5.70;;
11121;SDS011;5615;49.304;10.576;2022-11-13T12:11:55;6.07;;;5.57;;
11121;SDS011;5615;49.304;10.576;2022-11-13T12:14:31;6.00;;;5.00;;
11121;SDS011;5615;49.304;10.576;2022-11-13T12:17:09;5.53;;;5.10;;
11121;SDS011;5615;49.304;10.576;2022-11-13T12:19:48;6.10;;;5.50;;
11121;SDS011;5615;49.304;10.576;2022-11-13T12:22:29;7.40;;;5.93;;
11121;SDS011;5615;49.304;10.576;2022-11-13T12:25:09;5.93;;;5.35;;
11121;SDS011;5615;49.304;10.576;2022-11-13T12:27:45;5.30;;;4.85;;
11121;SDS011;5615;49.304;10.576;2022-11-13T12:30:16;5.30;;;4.90;;
11121;SDS011;5615;49.304;10.576;2022-11-13T12:32:50;5.93;;;5.30;;
11121;SDS011;5615;49.304;10.576;2022-11-13T12:35:26;6.00;;;5.32;;
11121;SDS011;5615;49.304;10.576;2022-11-13T12:37:57;5.13;;;4.70;;
11121;SDS011;5615;49.304;10.576;2022-11-13T12:40:30;5.20;;;4.70;;
11121;SDS011;5615;49.304;10.576;2022-11-13T12:43:06;6.00;;;4.93;;
11121;SDS011;5615;49.304;10.576;2022-11-13T12:45:49;5.47;;;4.97;;
11121;SDS011;5615;49.304;10.576;2022-11-13T12:48:20;5.70;;;5.15;;
11121;SDS011;5615;49.304;10.576;2022-11-13T12:50:57;5.63;;;5.13;;
11121;SDS011;5615;49.304;10.576;2022-11-13T12:53:27;5.38;;;4.95;;
11121;SDS011;5615;49.304;10.576;2022-11-13T12:55:56;6.30;;;5.70;;
11121;SDS011;5615;49.304;10.576;2022-11-13T12:58:25;5.50;;;5.00;;
11121;SDS011;5615;49.304;10.576;2022-11-13T13:00:54;5.40;;;5.00;;
11121;SDS011;5615;49.304;10.576;2022-11-13T13:03:35;5.60;;;5.10;;
11121;SDS011;5615;49.304;10.576;2022-11-13T13:06:18;5.43;;;4.93;;
11121;SDS011;5615;49.304;10.576;2022-11-13T13:09:04;5.22;;;4.75;;
11121;SDS011;5615;49.304;10.576;2022-11-13T13:11:41;5.57;;;5.03;;
11121;SDS011;5615;49.304;10.576;2022-11-13T13:14:21;5.35;;;4.88;;
11121;SDS011;5615;49.304;10.576;2022-11-13T13:17:03;4.97;;;4.57;;
11121;SDS011;5615;49.304;10.576;2022-11-13T13:19:31;5.07;;;4.57;;
11121;SDS011;5615;49.304;10.576;2022-11-13T13:21:58;5.35;;;4.95;;
11121;SDS011;5615;49.304;10.576;2022-11-13T13:24:28;5.15;;;4.75;;
11121;SDS011;5615;49.304;10.576;2022-11-13T13:26:58;5.13;;;4.63;;
11121;SDS011;5615;49.304;10.576;2022-11-13T13:29:25;5.00;;;4.57;;
11121;SDS011;5615;49.304;10.576;2022-11-13T13:31:55;4.97;;;4.57;;
11121;SDS011;5615;49.304;10.576;2022-11-13T13:34:30;5.00;;;4.50;;
11121;SDS011;5615;49.304;10.576;2022-11-13T13:37:07;5.38;;;4.88;;
11121;SDS011;5615;49.304;10.576;2022-11-13T13:39:44;5.15;;;4.57;;
11121;SDS011;5615;49.304;10.576;2022-11-13T13:42:24;5.15;;;4.65;;
11121;SDS011;5615;49.304;10.576;2022-11-13T13:45:10;5.35;;;4.85;;
11121;SDS011;5615;49.304;10.576;2022-11-13T13:47:46;4.93;;;4.53;;
11121;SDS011;5615;49.304;10.576;2022-11-13T13:50:16;5.35;;;4.85;;
11121;SDS011;5615;49.304;10.576;2022-11-13T13:52:45;5.43;;;4.70;;
11121;SDS011;5615;49.304;10.576;2022-11-13T13:55:16;5.20;;;4.80;;
11121;SDS011;5615;49.304;10.576;2022-11-13T13:57:46;5.55;;;5.15;;
11121;SDS011;5615;49.304;10.576;2022-11-13T14:00:14;5.05;;;4.65;;
11121;SDS011;5615;49.304;10.576;2022-11-13T14:02:44;5.05;;;4.65;;
11121;SDS011;5615;49.304;10.576;2022-11-13T14:05:16;5.32;;;4.93;;
11121;SDS011;5615;49.304;10.576;2022-11-13T14:07:51;5.32;;;4.93;;
11121;SDS011;5615;49.304;10.576;2022-11-13T14:10:20;5.85;;;5.25;;
11121;SDS011;5615;49.304;10.576;2022-11-13T14:12:48;5.13;;;4.63;;
11121;SDS011;5615;49.304;10.576;2022-11-13T14:15:17;5.95;;;5.38;;
11121;SDS011;5615;49.304;10.576;2022-11-13T14:17:48;6.22;;;5.63;;
11121;SDS011;5615;49.304;10.576;2022-11-13T14:20:15;6.43;;;5.85;;
11121;SDS011;5615;49.304;10.576;2022-11-13T14:22:43;10.20;;;9.35;;
11121;SDS011;5615;49.304;10.576;2022-11-13T14:25:15;8.82;;;8.18;;
11121;SDS011;5615;49.304;10.576;2022-11-13T14:27:46;6.28;;;5.75;;
11121;SDS011;5615;49.304;10.576;2022-11-13T14:30:23;6.85;;;6.25;;
11121;SDS011;5615;49.304;10.576;2022-11-13T14:32:52;5.68;;;5.25;;
11121;SDS011;5615;49.304;10.576;2022-11-13T14:35:20;9.25;;;8.45;;
11121;SDS011;5615;49.304;10.576;2022-11-13T14:37:48;5.95;;;5.45;;
11121;SDS011;5615;49.304;10.576;2022-11-13T14:40:20;6.22;;;5.63;;
11121;SDS011;5615;49.304;10.576;2022-11-13T14:42:48;5.90;;;5.30;;